メインページ
METAR-TAF:

METAR-TAF

空港 :

テッド・スティーブンス・アンカレッジ国際空港

アンカレッジ, アラスカ州, アメリカ合衆国

緯度: 61-10-28N, 経度: 149-59-46W, 海抜: 44m

現時点の気象観測

当レポートは18分前の01:53(UTC)に作成
の風 9kt、最大15ktの突風を伴う
気温 -9°C
湿度 79%
気圧 991 hPa
視程: 0.8km
雪, 着氷性の霧

METAR: PANC 150153Z 01009G15KT 1/2SM R07R/5000VP6000FT SN FZFG VV009 M09/M12 A2925 RMK AO2 SLP908 P0003 T10941122 $

時間: 17:11 (02:11 UTC)

予報

当レポートは2時間22分前の23:49(UTC)に作成
予報は15日の 00時(UTC)から 16日の 06時(UTC)まで有効
の風 8kt
視程: 4.8km
高度3000ftの曇り
小雪
15日の 00時(UTC)から 15日の 03時(UTC)まで一時的に
視程: 1.6km
高度1500ftの千切れ雲あり
小雪
15日の 0300時(UTC)から
の風 8kt
視程: 3.2km
高度1500ftの曇り
小雪
15日の 0400時(UTC)から
の風 8kt
視程: 1.6km
高度900ftの千切れ雲あり
高度1500ftの曇り
小雪, 靄
15日の 0800時(UTC)から
の風 7kt
視程: 6.4km
高度1500ftの雲は散在している
高度2500ftの曇り
小雪, 靄
15日の 1000時(UTC)から
の風 7kt
視程: 10km
高度3000ftの千切れ雲あり
高度6000ftの曇り
近辺でにわか雨

TAF: PANC 142349Z 1500/1606 36008KT 3SM -SN OVC030 TEMPO 1500/1503 1SM -SN BKN015 FM150300 01008KT 2SM -SN OVC015 FM150400 01008KT 1SM -SN BR BKN009 OVC015 FM150800 01007KT 4SM -SN BR SCT015 OVC025 FM151000 36007KT P6SM VCSH BKN030 OVC060

4,000以上の空港の気象観測と天気予報(METAR報とTAF報)

利用可能な観測所は地図上に黄色い丸と赤い丸で示す。

丸の上にカーソルを重ねると観測所名を参照できる。

次にクリックすると気象観測と天気予報を参照できる。

マップの切り替え:黒色「×」印の緑ボタンをクリックして拡大、「-」印の緑ボタンをクリックして縮小、緑色の三角印をクリックして隣りの地図に切り替え


METAR-TAF: